PWSweather.com
Personal Weather Stations
Station Observations
IBAVARIA50
Munich, PlieningDE 85652

MunichPlieningDE 85652

Lat: 48.19916153, Lon: 11.79794312

Elevation: 504

Station Type: Davis Vantage Pro2

http://wetterstation-pliening.info

High Low Average
Temperature 54.2°F12.3°C 42.7°F5.9°C 48.4°F9.1°C
Dew Point 44.3°F6.8°C 38.5°F3.6°C 40.7°F4.8°C
Winds 15.0 mph 24.1 kmh 2.0 mph 3.2 kmh 7.0 mph WSW11.3 kmh WSW
Wind Gusts 29.0 mph46.7 kmh 5.0 mph8.0 kmh 13.0 mph20.9 kmh
Humidity 88% 57% 76%
Pressure 30.21 in1023.0 mb 30.10 in1019.3 mb -
Precipitation 0.00 in0.0 mm - -
Hour Temp Dew Point Humidity Winds Wind Gusts Pressure Precip Precip Rate Daily Precip Total
12:00 AM 46.6°F8.1°C 42.6°F5.9°C 86% 6.0 mph WSW9.7 kmh WSW 7.0 mph11.3 kmh 30.11 in1019.6 mb 0.00 in0.0 mm 0.00 in0.0 mm 0.00 in0.0 mm
12:05 AM 46.6°F8.1°C 42.6°F5.9°C 86% 5.0 mph W8.0 kmh W 9.0 mph14.5 kmh 30.10 in1019.3 mb 0.00 in0.0 mm 0.00 in0.0 mm 0.00 in0.0 mm
12:10 AM 46.6°F8.1°C 42.9°F6.1°C 87% 10.0 mph W16.1 kmh W 12.0 mph19.3 kmh 30.10 in1019.3 mb 0.00 in0.0 mm 0.00 in0.0 mm 0.00 in0.0 mm
12:15 AM 46.6°F8.1°C 42.9°F6.1°C 87% 6.0 mph WSW9.7 kmh WSW 12.0 mph19.3 kmh 30.10 in1019.3 mb 0.00 in0.0 mm 0.00 in0.0 mm 0.00 in0.0 mm
12:20 AM 46.5°F8.1°C 42.8°F6.0°C 87% 4.0 mph WSW6.4 kmh WSW 12.0 mph19.3 kmh 30.10 in1019.3 mb 0.00 in0.0 mm 0.00 in0.0 mm 0.00 in0.0 mm
12:25 AM 46.5°F8.1°C 42.8°F6.0°C 87% 6.0 mph W9.7 kmh W 11.0 mph17.7 kmh 30.10 in1019.3 mb 0.00 in0.0 mm 0.00 in0.0 mm 0.00 in0.0 mm
12:30 AM 46.5°F8.1°C 42.8°F6.0°C 87% 10.0 mph SW16.1 kmh SW 12.0 mph19.3 kmh 30.11 in1019.6 mb 0.00 in0.0 mm 0.00 in0.0 mm 0.00 in0.0 mm
12:35 AM 46.5°F8.1°C 42.8°F6.0°C 87% 3.0 mph WSW4.8 kmh WSW 10.0 mph16.1 kmh 30.11 in1019.6 mb 0.00 in0.0 mm 0.00 in0.0 mm 0.00 in0.0 mm
12:40 AM 46.4°F8.0°C 42.7°F5.9°C 87% 6.0 mph W9.7 kmh W 13.0 mph20.9 kmh 30.11 in1019.6 mb 0.00 in0.0 mm 0.00 in0.0 mm 0.00 in0.0 mm
12:45 AM 46.2°F7.9°C 42.5°F5.8°C 87% 7.0 mph WNW11.3 kmh WNW 11.0 mph17.7 kmh 30.11 in1019.6 mb 0.00 in0.0 mm 0.00 in0.0 mm 0.00 in0.0 mm
12:50 AM 46.2°F7.9°C 42.8°F6.0°C 88% 5.0 mph W8.0 kmh W 10.0 mph16.1 kmh 30.11 in1019.6 mb 0.00 in0.0 mm 0.00 in0.0 mm 0.00 in0.0 mm
12:55 AM 46.2°F7.9°C 42.8°F6.0°C 88% 6.0 mph W9.7 kmh W 13.0 mph20.9 kmh 30.11 in1019.6 mb 0.00 in0.0 mm 0.00 in0.0 mm 0.00 in0.0 mm
01:00 AM 46.1°F7.8°C 42.7°F5.9°C 88% 8.0 mph WNW12.9 kmh WNW 11.0 mph17.7 kmh 30.11 in1019.6 mb 0.00 in0.0 mm 0.00 in0.0 mm 0.00 in0.0 mm
01:05 AM 46.1°F7.8°C 42.7°F5.9°C 88% 7.0 mph W11.3 kmh W 11.0 mph17.7 kmh 30.11 in1019.6 mb 0.00 in0.0 mm 0.00 in0.0 mm 0.00 in0.0 mm
01:10 AM 46.0°F7.8°C 42.6°F5.9°C 88% 4.0 mph WSW6.4 kmh WSW 14.0 mph22.5 kmh 30.11 in1019.6 mb 0.00 in0.0 mm 0.00 in0.0 mm 0.00 in0.0 mm
01:15 AM 46.0°F7.8°C 42.6°F5.9°C 88% 5.0 mph WSW8.0 kmh WSW 12.0 mph19.3 kmh 30.11 in1019.6 mb 0.00 in0.0 mm 0.00 in0.0 mm 0.00 in0.0 mm
01:20 AM 46.0°F7.8°C 42.6°F5.9°C 88% 5.0 mph WSW8.0 kmh WSW 12.0 mph19.3 kmh 30.11 in1019.6 mb 0.00 in0.0 mm 0.00 in0.0 mm 0.00 in0.0 mm
01:25 AM 45.9°F7.7°C 42.2°F5.7°C 87% 4.0 mph SW6.4 kmh SW 12.0 mph19.3 kmh 30.11 in1019.6 mb 0.00 in0.0 mm 0.00 in0.0 mm 0.00 in0.0 mm
01:30 AM 45.8°F7.7°C 42.1°F5.6°C 87% 3.0 mph W4.8 kmh W 11.0 mph17.7 kmh 30.11 in1019.6 mb 0.00 in0.0 mm 0.00 in0.0 mm 0.00 in0.0 mm
01:35 AM 45.7°F7.6°C 42.0°F5.6°C 87% 4.0 mph WNW6.4 kmh WNW 10.0 mph16.1 kmh 30.11 in1019.6 mb 0.00 in0.0 mm 0.00 in0.0 mm 0.00 in0.0 mm
01:40 AM 45.6°F7.6°C 41.9°F5.5°C 87% 5.0 mph NW8.0 kmh NW 9.0 mph14.5 kmh 30.11 in1019.6 mb 0.00 in0.0 mm 0.00 in0.0 mm 0.00 in0.0 mm
01:45 AM 45.6°F7.6°C 41.9°F5.5°C 87% 6.0 mph WNW9.7 kmh WNW 7.0 mph11.3 kmh 30.11 in1019.6 mb 0.00 in0.0 mm 0.00 in0.0 mm 0.00 in0.0 mm
01:50 AM 45.5°F7.5°C 41.5°F5.3°C 86% 5.0 mph WNW8.0 kmh WNW 10.0 mph16.1 kmh 30.11 in1019.6 mb 0.00 in0.0 mm 0.00 in0.0 mm 0.00 in0.0 mm
01:55 AM 45.4°F7.4°C 41.4°F5.2°C 86% 5.0 mph WNW8.0 kmh WNW 9.0 mph14.5 kmh 30.11 in1019.6 mb 0.00 in0.0 mm 0.00 in0.0 mm 0.00 in0.0 mm
02:00 AM 45.4°F7.4°C 41.4°F5.2°C 86% 5.0 mph WNW8.0 kmh WNW 10.0 mph16.1 kmh 30.11 in1019.6 mb 0.00 in0.0 mm 0.00 in0.0 mm 0.00 in0.0 mm
02:05 AM 45.4°F7.4°C 41.4°F5.2°C 86% 4.0 mph W6.4 kmh W 10.0 mph16.1 kmh 30.12 in1020.0 mb 0.00 in0.0 mm 0.00 in0.0 mm 0.00 in0.0 mm
02:10 AM 45.4°F7.4°C 41.4°F5.2°C 86% 7.0 mph WSW11.3 kmh WSW 10.0 mph16.1 kmh 30.12 in1020.0 mb 0.00 in0.0 mm 0.00 in0.0 mm 0.00 in0.0 mm
02:15 AM 45.3°F7.4°C 41.3°F5.2°C 86% 5.0 mph WNW8.0 kmh WNW 10.0 mph16.1 kmh 30.12 in1020.0 mb 0.00 in0.0 mm 0.00 in0.0 mm 0.00 in0.0 mm
02:20 AM 45.3°F7.4°C 41.3°F5.2°C 86% 6.0 mph W9.7 kmh W 11.0 mph17.7 kmh 30.12 in1020.0 mb 0.00 in0.0 mm 0.00 in0.0 mm 0.00 in0.0 mm
02:25 AM 45.3°F7.4°C 41.3°F5.2°C 86% 5.0 mph WSW8.0 kmh WSW 10.0 mph16.1 kmh 30.12 in1020.0 mb 0.00 in0.0 mm 0.00 in0.0 mm 0.00 in0.0 mm
02:30 AM 45.2°F7.3°C 41.2°F5.1°C 86% 8.0 mph W12.9 kmh W 12.0 mph19.3 kmh 30.12 in1020.0 mb 0.00 in0.0 mm 0.00 in0.0 mm 0.00 in0.0 mm
02:35 AM 45.3°F7.4°C 41.3°F5.2°C 86% 3.0 mph W4.8 kmh W 9.0 mph14.5 kmh 30.12 in1020.0 mb 0.00 in0.0 mm 0.00 in0.0 mm 0.00 in0.0 mm
02:40 AM 45.3°F7.4°C 41.3°F5.2°C 86% 6.0 mph W9.7 kmh W 10.0 mph16.1 kmh 30.12 in1020.0 mb 0.00 in0.0 mm 0.00 in0.0 mm 0.00 in0.0 mm
02:45 AM 45.2°F7.3°C 41.2°F5.1°C 86% 5.0 mph W8.0 kmh W 13.0 mph20.9 kmh 30.12 in1020.0 mb 0.00 in0.0 mm 0.00 in0.0 mm 0.00 in0.0 mm
02:50 AM 45.2°F7.3°C 41.2°F5.1°C 86% 6.0 mph W9.7 kmh W 12.0 mph19.3 kmh 30.12 in1020.0 mb 0.00 in0.0 mm 0.00 in0.0 mm 0.00 in0.0 mm
02:55 AM 45.1°F7.3°C 41.1°F5.1°C 86% 9.0 mph WNW14.5 kmh WNW 9.0 mph14.5 kmh 30.12 in1020.0 mb 0.00 in0.0 mm 0.00 in0.0 mm 0.00 in0.0 mm
03:00 AM 45.1°F7.3°C 41.1°F5.1°C 86% 3.0 mph NW4.8 kmh NW 12.0 mph19.3 kmh 30.12 in1020.0 mb 0.00 in0.0 mm 0.00 in0.0 mm 0.00 in0.0 mm
03:05 AM 45.1°F7.3°C 41.1°F5.1°C 86% 5.0 mph W8.0 kmh W 10.0 mph16.1 kmh 30.12 in1020.0 mb 0.00 in0.0 mm 0.00 in0.0 mm 0.00 in0.0 mm
03:10 AM 45.0°F7.2°C 41.3°F5.2°C 87% 3.0 mph W4.8 kmh W 10.0 mph16.1 kmh 30.12 in1020.0 mb 0.00 in0.0 mm 0.00 in0.0 mm 0.00 in0.0 mm
03:15 AM 45.0°F7.2°C 41.3°F5.2°C 87% 5.0 mph W8.0 kmh W 6.0 mph9.7 kmh 30.13 in1020.3 mb 0.00 in0.0 mm 0.00 in0.0 mm 0.00 in0.0 mm
03:20 AM 45.0°F7.2°C 41.3°F5.2°C 87% 7.0 mph WSW11.3 kmh WSW 7.0 mph11.3 kmh 30.13 in1020.3 mb 0.00 in0.0 mm 0.00 in0.0 mm 0.00 in0.0 mm
03:25 AM 44.8°F7.1°C 40.8°F4.9°C 86% 10.0 mph WSW16.1 kmh WSW 13.0 mph20.9 kmh 30.13 in1020.3 mb 0.00 in0.0 mm 0.00 in0.0 mm 0.00 in0.0 mm
03:30 AM 44.6°F7.0°C 40.0°F4.4°C 84% 6.0 mph W9.7 kmh W 14.0 mph22.5 kmh 30.13 in1020.3 mb 0.00 in0.0 mm 0.00 in0.0 mm 0.00 in0.0 mm
03:35 AM 44.5°F6.9°C 40.2°F4.6°C 85% 7.0 mph WNW11.3 kmh WNW 12.0 mph19.3 kmh 30.13 in1020.3 mb 0.00 in0.0 mm 0.00 in0.0 mm 0.00 in0.0 mm
03:40 AM 44.5°F6.9°C 40.5°F4.7°C 86% 4.0 mph NW6.4 kmh NW 11.0 mph17.7 kmh 30.13 in1020.3 mb 0.00 in0.0 mm 0.00 in0.0 mm 0.00 in0.0 mm
03:45 AM 44.5°F6.9°C 40.5°F4.7°C 86% 4.0 mph WNW6.4 kmh WNW 12.0 mph19.3 kmh 30.14 in1020.7 mb 0.00 in0.0 mm 0.00 in0.0 mm 0.00 in0.0 mm
03:50 AM 44.4°F6.9°C 40.4°F4.7°C 86% 5.0 mph WNW8.0 kmh WNW 15.0 mph24.1 kmh 30.14 in1020.7 mb 0.00 in0.0 mm 0.00 in0.0 mm 0.00 in0.0 mm
03:55 AM 44.4°F6.9°C 40.4°F4.7°C 86% 6.0 mph WSW9.7 kmh WSW 14.0 mph22.5 kmh 30.14 in1020.7 mb 0.00 in0.0 mm 0.00 in0.0 mm 0.00 in0.0 mm
04:00 AM 44.3°F6.8°C 40.0°F4.4°C 85% 6.0 mph NW9.7 kmh NW 11.0 mph17.7 kmh 30.15 in1021.0 mb 0.00 in0.0 mm 0.00 in0.0 mm 0.00 in0.0 mm
04:05 AM 44.2°F6.8°C 39.6°F4.2°C 84% 7.0 mph WSW11.3 kmh WSW 14.0 mph22.5 kmh 30.15 in1021.0 mb 0.00 in0.0 mm 0.00 in0.0 mm 0.00 in0.0 mm
04:10 AM 44.0°F6.7°C 39.7°F4.3°C 85% 6.0 mph W9.7 kmh W 11.0 mph17.7 kmh 30.15 in1021.0 mb 0.00 in0.0 mm 0.00 in0.0 mm 0.00 in0.0 mm
04:15 AM 43.9°F6.6°C 39.3°F4.1°C 84% 3.0 mph W4.8 kmh W 11.0 mph17.7 kmh 30.15 in1021.0 mb 0.00 in0.0 mm 0.00 in0.0 mm 0.00 in0.0 mm
04:20 AM 43.9°F6.6°C 39.6°F4.2°C 85% 3.0 mph WNW4.8 kmh WNW 10.0 mph16.1 kmh 30.15 in1021.0 mb 0.00 in0.0 mm 0.00 in0.0 mm 0.00 in0.0 mm
04:25 AM 43.8°F6.6°C 39.5°F4.2°C 85% 12.0 mph WNW19.3 kmh WNW 12.0 mph19.3 kmh 30.15 in1021.0 mb 0.00 in0.0 mm 0.00 in0.0 mm 0.00 in0.0 mm
04:30 AM 43.7°F6.5°C 39.1°F3.9°C 84% 5.0 mph W8.0 kmh W 12.0 mph19.3 kmh 30.15 in1021.0 mb 0.00 in0.0 mm 0.00 in0.0 mm 0.00 in0.0 mm
04:35 AM 43.6°F6.4°C 39.0°F3.9°C 84% 5.0 mph W8.0 kmh W 12.0 mph19.3 kmh 30.15 in1021.0 mb 0.00 in0.0 mm 0.00 in0.0 mm 0.00 in0.0 mm
04:40 AM 43.6°F6.4°C 39.0°F3.9°C 84% 7.0 mph W11.3 kmh W 9.0 mph14.5 kmh 30.15 in1021.0 mb 0.00 in0.0 mm 0.00 in0.0 mm 0.00 in0.0 mm
04:45 AM 43.6°F6.4°C 39.0°F3.9°C 84% 4.0 mph WSW6.4 kmh WSW 9.0 mph14.5 kmh 30.16 in1021.3 mb 0.00 in0.0 mm 0.00 in0.0 mm 0.00 in0.0 mm
04:50 AM 43.6°F6.4°C 39.0°F3.9°C 84% 6.0 mph WNW9.7 kmh WNW 10.0 mph16.1 kmh 30.16 in1021.3 mb 0.00 in0.0 mm 0.00 in0.0 mm 0.00 in0.0 mm
04:55 AM 43.5°F6.4°C 38.9°F3.8°C 84% 2.0 mph WNW3.2 kmh WNW 9.0 mph14.5 kmh 30.16 in1021.3 mb 0.00 in0.0 mm 0.00 in0.0 mm 0.00 in0.0 mm
05:00 AM 43.5°F6.4°C 38.9°F3.8°C 84% 4.0 mph WNW6.4 kmh WNW 9.0 mph14.5 kmh 30.16 in1021.3 mb 0.00 in0.0 mm 0.00 in0.0 mm 0.00 in0.0 mm
05:05 AM 43.5°F6.4°C 38.9°F3.8°C 84% 4.0 mph W6.4 kmh W 10.0 mph16.1 kmh 30.17 in1021.7 mb 0.00 in0.0 mm 0.00 in0.0 mm 0.00 in0.0 mm
05:10 AM 43.5°F6.4°C 38.9°F3.8°C 84% 3.0 mph W4.8 kmh W 7.0 mph11.3 kmh 30.17 in1021.7 mb 0.00 in0.0 mm 0.00 in0.0 mm 0.00 in0.0 mm
05:15 AM 43.5°F6.4°C 38.9°F3.8°C 84% 5.0 mph WSW8.0 kmh WSW 7.0 mph11.3 kmh 30.16 in1021.3 mb 0.00 in0.0 mm 0.00 in0.0 mm 0.00 in0.0 mm
05:20 AM 43.6°F6.4°C 39.3°F4.1°C 85% 2.0 mph WSW3.2 kmh WSW 5.0 mph8.0 kmh 30.16 in1021.3 mb 0.00 in0.0 mm 0.00 in0.0 mm 0.00 in0.0 mm
05:25 AM 43.5°F6.4°C 39.2°F4.0°C 85% 4.0 mph W6.4 kmh W 7.0 mph11.3 kmh 30.17 in1021.7 mb 0.00 in0.0 mm 0.00 in0.0 mm 0.00 in0.0 mm
05:30 AM 43.4°F6.3°C 39.1°F3.9°C 85% 3.0 mph W4.8 kmh W 7.0 mph11.3 kmh 30.17 in1021.7 mb 0.00 in0.0 mm 0.00 in0.0 mm 0.00 in0.0 mm
05:35 AM 43.4°F6.3°C 39.1°F3.9°C 85% 3.0 mph W4.8 kmh W 7.0 mph11.3 kmh 30.17 in1021.7 mb 0.00 in0.0 mm 0.00 in0.0 mm 0.00 in0.0 mm
05:40 AM 43.4°F6.3°C 39.1°F3.9°C 85% 4.0 mph WSW6.4 kmh WSW 6.0 mph9.7 kmh 30.17 in1021.7 mb 0.00 in0.0 mm 0.00 in0.0 mm 0.00 in0.0 mm
05:45 AM 43.4°F6.3°C 39.1°F3.9°C 85% 6.0 mph WSW9.7 kmh WSW 7.0 mph11.3 kmh 30.17 in1021.7 mb 0.00 in0.0 mm 0.00 in0.0 mm 0.00 in0.0 mm
05:50 AM 43.4°F6.3°C 39.4°F4.1°C 86% 3.0 mph W4.8 kmh W 7.0 mph11.3 kmh 30.17 in1021.7 mb 0.00 in0.0 mm 0.00 in0.0 mm 0.00 in0.0 mm
05:55 AM 43.4°F6.3°C 39.4°F4.1°C 86% 4.0 mph W6.4 kmh W 9.0 mph14.5 kmh 30.17 in1021.7 mb 0.00 in0.0 mm 0.00 in0.0 mm 0.00 in0.0 mm
06:00 AM 43.4°F6.3°C 39.4°F4.1°C 86% 3.0 mph WSW4.8 kmh WSW 7.0 mph11.3 kmh 30.17 in1021.7 mb 0.00 in0.0 mm 0.00 in0.0 mm 0.00 in0.0 mm
06:05 AM 43.4°F6.3°C 39.4°F4.1°C 86% 5.0 mph W8.0 kmh W 7.0 mph11.3 kmh 30.17 in1021.7 mb 0.00 in0.0 mm 0.00 in0.0 mm 0.00 in0.0 mm
06:10 AM 43.5°F6.4°C 39.5°F4.2°C 86% 5.0 mph WSW8.0 kmh WSW 6.0 mph9.7 kmh 30.18 in1022.0 mb 0.00 in0.0 mm 0.00 in0.0 mm 0.00 in0.0 mm
06:15 AM 43.5°F6.4°C 39.8°F4.3°C 87% 3.0 mph WSW4.8 kmh WSW 7.0 mph11.3 kmh 30.18 in1022.0 mb 0.00 in0.0 mm 0.00 in0.0 mm 0.00 in0.0 mm
06:20 AM 43.5°F6.4°C 39.8°F4.3°C 87% 4.0 mph WSW6.4 kmh WSW 9.0 mph14.5 kmh 30.18 in1022.0 mb 0.00 in0.0 mm 0.00 in0.0 mm 0.00 in0.0 mm
06:25 AM 43.4°F6.3°C 39.7°F4.3°C 87% 6.0 mph W9.7 kmh W 11.0 mph17.7 kmh 30.18 in1022.0 mb 0.00 in0.0 mm 0.00 in0.0 mm 0.00 in0.0 mm
06:30 AM 43.3°F6.3°C 39.6°F4.2°C 87% 3.0 mph SW4.8 kmh SW 10.0 mph16.1 kmh 30.18 in1022.0 mb 0.00 in0.0 mm 0.00 in0.0 mm 0.00 in0.0 mm
06:35 AM 43.3°F6.3°C 39.6°F4.2°C 87% 9.0 mph SW14.5 kmh SW 11.0 mph17.7 kmh 30.18 in1022.0 mb 0.00 in0.0 mm 0.00 in0.0 mm 0.00 in0.0 mm
06:40 AM 43.1°F6.2°C 39.2°F4.0°C 86% 4.0 mph W6.4 kmh W 11.0 mph17.7 kmh 30.18 in1022.0 mb 0.00 in0.0 mm 0.00 in0.0 mm 0.00 in0.0 mm
06:45 AM 43.0°F6.1°C 39.1°F3.9°C 86% 4.0 mph W6.4 kmh W 9.0 mph14.5 kmh 30.18 in1022.0 mb 0.00 in0.0 mm 0.00 in0.0 mm 0.00 in0.0 mm
06:50 AM 42.8°F6.0°C 39.2°F4.0°C 87% 6.0 mph WSW9.7 kmh WSW 9.0 mph14.5 kmh 30.19 in1022.4 mb 0.00 in0.0 mm 0.00 in0.0 mm 0.00 in0.0 mm
06:55 AM 42.7°F5.9°C 39.1°F3.9°C 87% 4.0 mph WSW6.4 kmh WSW 9.0 mph14.5 kmh 30.19 in1022.4 mb 0.00 in0.0 mm 0.00 in0.0 mm 0.00 in0.0 mm
07:00 AM 42.8°F6.0°C 39.2°F4.0°C 87% 5.0 mph WSW8.0 kmh WSW 9.0 mph14.5 kmh 30.19 in1022.4 mb 0.00 in0.0 mm 0.00 in0.0 mm 0.00 in0.0 mm
07:05 AM 42.9°F6.1°C 39.0°F3.9°C 86% 5.0 mph W8.0 kmh W 11.0 mph17.7 kmh 30.19 in1022.4 mb 0.00 in0.0 mm 0.00 in0.0 mm 0.00 in0.0 mm
07:10 AM 43.0°F6.1°C 39.1°F3.9°C 86% 10.0 mph W16.1 kmh W 12.0 mph19.3 kmh 30.19 in1022.4 mb 0.00 in0.0 mm 0.00 in0.0 mm 0.00 in0.0 mm
07:15 AM 43.0°F6.1°C 39.1°F3.9°C 86% 4.0 mph WSW6.4 kmh WSW 11.0 mph17.7 kmh 30.19 in1022.4 mb 0.00 in0.0 mm 0.00 in0.0 mm 0.00 in0.0 mm
07:20 AM 43.2°F6.2°C 39.2°F4.0°C 86% 5.0 mph WSW8.0 kmh WSW 9.0 mph14.5 kmh 30.19 in1022.4 mb 0.00 in0.0 mm 0.00 in0.0 mm 0.00 in0.0 mm
07:25 AM 43.2°F6.2°C 39.0°F3.9°C 85% 6.0 mph WSW9.7 kmh WSW 10.0 mph16.1 kmh 30.19 in1022.4 mb 0.00 in0.0 mm 0.00 in0.0 mm 0.00 in0.0 mm
07:30 AM 43.1°F6.2°C 38.9°F3.8°C 85% 6.0 mph WNW9.7 kmh WNW 11.0 mph17.7 kmh 30.20 in1022.7 mb 0.00 in0.0 mm 0.00 in0.0 mm 0.00 in0.0 mm
07:35 AM 43.0°F6.1°C 38.5°F3.6°C 84% 9.0 mph W14.5 kmh W 11.0 mph17.7 kmh 30.20 in1022.7 mb 0.00 in0.0 mm 0.00 in0.0 mm 0.00 in0.0 mm
07:40 AM 43.0°F6.1°C 38.5°F3.6°C 84% 6.0 mph SW9.7 kmh SW 13.0 mph20.9 kmh 30.20 in1022.7 mb 0.00 in0.0 mm 0.00 in0.0 mm 0.00 in0.0 mm
07:45 AM 43.1°F6.2°C 38.9°F3.8°C 85% 10.0 mph WSW16.1 kmh WSW 12.0 mph19.3 kmh 30.20 in1022.7 mb 0.00 in0.0 mm 0.00 in0.0 mm 0.00 in0.0 mm
07:50 AM 43.2°F6.2°C 38.6°F3.7°C 84% 5.0 mph WSW8.0 kmh WSW 13.0 mph20.9 kmh 30.20 in1022.7 mb 0.00 in0.0 mm 0.00 in0.0 mm 0.00 in0.0 mm
07:55 AM 43.2°F6.2°C 39.0°F3.9°C 85% 7.0 mph W11.3 kmh W 12.0 mph19.3 kmh 30.21 in1023.0 mb 0.00 in0.0 mm 0.00 in0.0 mm 0.00 in0.0 mm
08:00 AM 43.4°F6.3°C 38.8°F3.8°C 84% 4.0 mph WSW6.4 kmh WSW 12.0 mph19.3 kmh 30.21 in1023.0 mb 0.00 in0.0 mm 0.00 in0.0 mm 0.00 in0.0 mm
08:05 AM 43.7°F6.5°C 39.1°F3.9°C 84% 7.0 mph W11.3 kmh W 12.0 mph19.3 kmh 30.21 in1023.0 mb 0.00 in0.0 mm 0.00 in0.0 mm 0.00 in0.0 mm
02:35 PM 54.2°F12.3°C 39.3°F4.1°C 57% 14.0 mph WSW22.5 kmh WSW 20.0 mph32.2 kmh 30.15 in1021.0 mb 0.00 in0.0 mm 0.00 in0.0 mm 0.00 in0.0 mm
02:40 PM 54.0°F12.2°C 39.5°F4.2°C 58% 7.0 mph WNW11.3 kmh WNW 14.0 mph22.5 kmh 30.15 in1021.0 mb 0.00 in0.0 mm 0.00 in0.0 mm 0.00 in0.0 mm
02:45 PM 53.6°F12.0°C 40.0°F4.4°C 60% 10.0 mph WSW16.1 kmh WSW 15.0 mph24.1 kmh 30.14 in1020.7 mb 0.00 in0.0 mm 0.00 in0.0 mm 0.00 in0.0 mm
02:50 PM 53.4°F11.9°C 39.4°F4.1°C 59% 13.0 mph SW20.9 kmh SW 15.0 mph24.1 kmh 30.14 in1020.7 mb 0.00 in0.0 mm 0.00 in0.0 mm 0.00 in0.0 mm
02:55 PM 53.2°F11.8°C 38.8°F3.8°C 58% 14.0 mph SW22.5 kmh SW 16.0 mph25.7 kmh 30.15 in1021.0 mb 0.00 in0.0 mm 0.00 in0.0 mm 0.00 in0.0 mm
03:00 PM 53.0°F11.7°C 38.6°F3.7°C 58% 14.0 mph SW22.5 kmh SW 20.0 mph32.2 kmh 30.15 in1021.0 mb 0.00 in0.0 mm 0.00 in0.0 mm 0.00 in0.0 mm
03:05 PM 52.9°F11.6°C 38.9°F3.8°C 59% 13.0 mph WSW20.9 kmh WSW 17.0 mph27.4 kmh 30.16 in1021.3 mb 0.00 in0.0 mm 0.00 in0.0 mm 0.00 in0.0 mm
03:10 PM 52.8°F11.6°C 39.3°F4.1°C 60% 13.0 mph WSW20.9 kmh WSW 16.0 mph25.7 kmh 30.15 in1021.0 mb 0.00 in0.0 mm 0.00 in0.0 mm 0.00 in0.0 mm
03:15 PM 52.8°F11.6°C 39.3°F4.1°C 60% 13.0 mph W20.9 kmh W 19.0 mph30.6 kmh 30.15 in1021.0 mb 0.00 in0.0 mm 0.00 in0.0 mm 0.00 in0.0 mm
03:20 PM 53.0°F11.7°C 39.9°F4.4°C 61% 10.0 mph WSW16.1 kmh WSW 14.0 mph22.5 kmh 30.16 in1021.3 mb 0.00 in0.0 mm 0.00 in0.0 mm 0.00 in0.0 mm
03:25 PM 53.1°F11.7°C 40.0°F4.4°C 61% 7.0 mph SW11.3 kmh SW 14.0 mph22.5 kmh 30.15 in1021.0 mb 0.00 in0.0 mm 0.00 in0.0 mm 0.00 in0.0 mm
03:30 PM 53.0°F11.7°C 39.0°F3.9°C 59% 9.0 mph WSW14.5 kmh WSW 16.0 mph25.7 kmh 30.15 in1021.0 mb 0.00 in0.0 mm 0.00 in0.0 mm 0.00 in0.0 mm
03:35 PM 53.2°F11.8°C 39.2°F4.0°C 59% 6.0 mph SW9.7 kmh SW 13.0 mph20.9 kmh 30.15 in1021.0 mb 0.00 in0.0 mm 0.00 in0.0 mm 0.00 in0.0 mm
03:40 PM 53.2°F11.8°C 40.1°F4.5°C 61% 4.0 mph SW6.4 kmh SW 13.0 mph20.9 kmh 30.15 in1021.0 mb 0.00 in0.0 mm 0.00 in0.0 mm 0.00 in0.0 mm
03:45 PM 53.2°F11.8°C 39.6°F4.2°C 60% 9.0 mph W14.5 kmh W 14.0 mph22.5 kmh 30.15 in1021.0 mb 0.00 in0.0 mm 0.00 in0.0 mm 0.00 in0.0 mm
03:50 PM 53.2°F11.8°C 39.2°F4.0°C 59% 12.0 mph W19.3 kmh W 16.0 mph25.7 kmh 30.15 in1021.0 mb 0.00 in0.0 mm 0.00 in0.0 mm 0.00 in0.0 mm
03:55 PM 53.2°F11.8°C 40.1°F4.5°C 61% 11.0 mph WSW17.7 kmh WSW 15.0 mph24.1 kmh 30.15 in1021.0 mb 0.00 in0.0 mm 0.00 in0.0 mm 0.00 in0.0 mm
04:00 PM 53.0°F11.7°C 39.4°F4.1°C 60% 5.0 mph W8.0 kmh W 14.0 mph22.5 kmh 30.15 in1021.0 mb 0.00 in0.0 mm 0.00 in0.0 mm 0.00 in0.0 mm
04:05 PM 52.9°F11.6°C 39.8°F4.3°C 61% 6.0 mph WSW9.7 kmh WSW 15.0 mph24.1 kmh 30.15 in1021.0 mb 0.00 in0.0 mm 0.00 in0.0 mm 0.00 in0.0 mm
04:10 PM 52.8°F11.6°C 39.3°F4.1°C 60% 13.0 mph WSW20.9 kmh WSW 17.0 mph27.4 kmh 30.15 in1021.0 mb 0.00 in0.0 mm 0.00 in0.0 mm 0.00 in0.0 mm
04:15 PM 52.7°F11.5°C 39.6°F4.2°C 61% 8.0 mph WSW12.9 kmh WSW 17.0 mph27.4 kmh 30.15 in1021.0 mb 0.00 in0.0 mm 0.00 in0.0 mm 0.00 in0.0 mm
04:20 PM 52.6°F11.4°C 39.5°F4.2°C 61% 12.0 mph WSW19.3 kmh WSW 18.0 mph29.0 kmh 30.15 in1021.0 mb 0.00 in0.0 mm 0.00 in0.0 mm 0.00 in0.0 mm
04:25 PM 52.5°F11.4°C 39.8°F4.3°C 62% 10.0 mph WSW16.1 kmh WSW 15.0 mph24.1 kmh 30.15 in1021.0 mb 0.00 in0.0 mm 0.00 in0.0 mm 0.00 in0.0 mm
04:30 PM 52.4°F11.3°C 39.7°F4.3°C 62% 9.0 mph WSW14.5 kmh WSW 14.0 mph22.5 kmh 30.14 in1020.7 mb 0.00 in0.0 mm 0.00 in0.0 mm 0.00 in0.0 mm
04:35 PM 52.4°F11.3°C 39.7°F4.3°C 62% 13.0 mph SW20.9 kmh SW 14.0 mph22.5 kmh 30.14 in1020.7 mb 0.00 in0.0 mm 0.00 in0.0 mm 0.00 in0.0 mm
04:40 PM 52.4°F11.3°C 39.7°F4.3°C 62% 8.0 mph SW12.9 kmh SW 15.0 mph24.1 kmh 30.14 in1020.7 mb 0.00 in0.0 mm 0.00 in0.0 mm 0.00 in0.0 mm
04:45 PM 52.4°F11.3°C 39.7°F4.3°C 62% 8.0 mph WSW12.9 kmh WSW 15.0 mph24.1 kmh 30.14 in1020.7 mb 0.00 in0.0 mm 0.00 in0.0 mm 0.00 in0.0 mm
04:50 PM 52.4°F11.3°C 39.7°F4.3°C 62% 7.0 mph WNW11.3 kmh WNW 13.0 mph20.9 kmh 30.14 in1020.7 mb 0.00 in0.0 mm 0.00 in0.0 mm 0.00 in0.0 mm
04:55 PM 52.3°F11.3°C 39.2°F4.0°C 61% 8.0 mph WSW12.9 kmh WSW 19.0 mph30.6 kmh 30.14 in1020.7 mb 0.00 in0.0 mm 0.00 in0.0 mm 0.00 in0.0 mm
05:00 PM 52.2°F11.2°C 39.1°F3.9°C 61% 10.0 mph W16.1 kmh W 18.0 mph29.0 kmh 30.14 in1020.7 mb 0.00 in0.0 mm 0.00 in0.0 mm 0.00 in0.0 mm
05:05 PM 52.1°F11.2°C 38.6°F3.7°C 60% 7.0 mph SSW11.3 kmh SSW 16.0 mph25.7 kmh 30.14 in1020.7 mb 0.00 in0.0 mm 0.00 in0.0 mm 0.00 in0.0 mm
05:10 PM 52.1°F11.2°C 38.6°F3.7°C 60% 9.0 mph SW14.5 kmh SW 14.0 mph22.5 kmh 30.14 in1020.7 mb 0.00 in0.0 mm 0.00 in0.0 mm 0.00 in0.0 mm
05:15 PM 52.1°F11.2°C 38.6°F3.7°C 60% 5.0 mph SSW8.0 kmh SSW 15.0 mph24.1 kmh 30.14 in1020.7 mb 0.00 in0.0 mm 0.00 in0.0 mm 0.00 in0.0 mm
05:20 PM 52.1°F11.2°C 39.0°F3.9°C 61% 9.0 mph SW14.5 kmh SW 13.0 mph20.9 kmh 30.14 in1020.7 mb 0.00 in0.0 mm 0.00 in0.0 mm 0.00 in0.0 mm
05:25 PM 52.1°F11.2°C 39.4°F4.1°C 62% 11.0 mph SW17.7 kmh SW 15.0 mph24.1 kmh 30.14 in1020.7 mb 0.00 in0.0 mm 0.00 in0.0 mm 0.00 in0.0 mm
05:30 PM 52.2°F11.2°C 39.5°F4.2°C 62% 13.0 mph SW20.9 kmh SW 16.0 mph25.7 kmh 30.14 in1020.7 mb 0.00 in0.0 mm 0.00 in0.0 mm 0.00 in0.0 mm
05:35 PM 52.2°F11.2°C 39.9°F4.4°C 63% 14.0 mph W22.5 kmh W 16.0 mph25.7 kmh 30.14 in1020.7 mb 0.00 in0.0 mm 0.00 in0.0 mm 0.00 in0.0 mm
05:40 PM 52.1°F11.2°C 38.6°F3.7°C 60% 11.0 mph SW17.7 kmh SW 17.0 mph27.4 kmh 30.14 in1020.7 mb 0.00 in0.0 mm 0.00 in0.0 mm 0.00 in0.0 mm
05:45 PM 52.2°F11.2°C 38.7°F3.7°C 60% 6.0 mph W9.7 kmh W 13.0 mph20.9 kmh 30.14 in1020.7 mb 0.00 in0.0 mm 0.00 in0.0 mm 0.00 in0.0 mm
05:50 PM 52.1°F11.2°C 38.6°F3.7°C 60% 12.0 mph W19.3 kmh W 15.0 mph24.1 kmh 30.14 in1020.7 mb 0.00 in0.0 mm 0.00 in0.0 mm 0.00 in0.0 mm
05:55 PM 52.1°F11.2°C 39.4°F4.1°C 62% 10.0 mph SW16.1 kmh SW 14.0 mph22.5 kmh 30.15 in1021.0 mb 0.00 in0.0 mm 0.00 in0.0 mm 0.00 in0.0 mm
06:00 PM 52.1°F11.2°C 39.4°F4.1°C 62% 5.0 mph WSW8.0 kmh WSW 14.0 mph22.5 kmh 30.15 in1021.0 mb 0.00 in0.0 mm 0.00 in0.0 mm 0.00 in0.0 mm
06:05 PM 52.0°F11.1°C 39.7°F4.3°C 63% 4.0 mph WSW6.4 kmh WSW 13.0 mph20.9 kmh 30.15 in1021.0 mb 0.00 in0.0 mm 0.00 in0.0 mm 0.00 in0.0 mm
06:10 PM 52.0°F11.1°C 40.2°F4.6°C 64% 7.0 mph SW11.3 kmh SW 14.0 mph22.5 kmh 30.15 in1021.0 mb 0.00 in0.0 mm 0.00 in0.0 mm 0.00 in0.0 mm
06:15 PM 52.0°F11.1°C 40.2°F4.6°C 64% 7.0 mph W11.3 kmh W 12.0 mph19.3 kmh 30.15 in1021.0 mb 0.00 in0.0 mm 0.00 in0.0 mm 0.00 in0.0 mm
06:20 PM 52.0°F11.1°C 40.6°F4.8°C 65% 6.0 mph WSW9.7 kmh WSW 11.0 mph17.7 kmh 30.15 in1021.0 mb 0.00 in0.0 mm 0.00 in0.0 mm 0.00 in0.0 mm
06:25 PM 52.0°F11.1°C 40.2°F4.6°C 64% 6.0 mph SW9.7 kmh SW 10.0 mph16.1 kmh 30.15 in1021.0 mb 0.00 in0.0 mm 0.00 in0.0 mm 0.00 in0.0 mm
06:30 PM 52.0°F11.1°C 40.2°F4.6°C 64% 6.0 mph W9.7 kmh W 15.0 mph24.1 kmh 30.16 in1021.3 mb 0.00 in0.0 mm 0.00 in0.0 mm 0.00 in0.0 mm
06:35 PM 52.0°F11.1°C 40.6°F4.8°C 65% 5.0 mph WSW8.0 kmh WSW 9.0 mph14.5 kmh 30.16 in1021.3 mb 0.00 in0.0 mm 0.00 in0.0 mm 0.00 in0.0 mm
06:40 PM 52.0°F11.1°C 40.6°F4.8°C 65% 5.0 mph WSW8.0 kmh WSW 11.0 mph17.7 kmh 30.16 in1021.3 mb 0.00 in0.0 mm 0.00 in0.0 mm 0.00 in0.0 mm
06:45 PM 52.0°F11.1°C 40.6°F4.8°C 65% 7.0 mph W11.3 kmh W 12.0 mph19.3 kmh 30.16 in1021.3 mb 0.00 in0.0 mm 0.00 in0.0 mm 0.00 in0.0 mm
06:50 PM 52.1°F11.2°C 40.6°F4.8°C 65% 3.0 mph WSW4.8 kmh WSW 11.0 mph17.7 kmh 30.16 in1021.3 mb 0.00 in0.0 mm 0.00 in0.0 mm 0.00 in0.0 mm
06:55 PM 52.1°F11.2°C 41.0°F5.0°C 66% 8.0 mph WSW12.9 kmh WSW 11.0 mph17.7 kmh 30.16 in1021.3 mb 0.00 in0.0 mm 0.00 in0.0 mm 0.00 in0.0 mm
07:00 PM 52.0°F11.1°C 40.6°F4.8°C 65% 10.0 mph SSW16.1 kmh SSW 17.0 mph27.4 kmh 30.16 in1021.3 mb 0.00 in0.0 mm 0.00 in0.0 mm 0.00 in0.0 mm
07:05 PM 52.1°F11.2°C 40.6°F4.8°C 65% 14.0 mph WSW22.5 kmh WSW 14.0 mph22.5 kmh 30.16 in1021.3 mb 0.00 in0.0 mm 0.00 in0.0 mm 0.00 in0.0 mm
07:10 PM 52.1°F11.2°C 40.2°F4.6°C 64% 5.0 mph WSW8.0 kmh WSW 14.0 mph22.5 kmh 30.16 in1021.3 mb 0.00 in0.0 mm 0.00 in0.0 mm 0.00 in0.0 mm
07:15 PM 52.1°F11.2°C 40.2°F4.6°C 64% 12.0 mph SW19.3 kmh SW 16.0 mph25.7 kmh 30.16 in1021.3 mb 0.00 in0.0 mm 0.00 in0.0 mm 0.00 in0.0 mm
07:20 PM 52.1°F11.2°C 40.2°F4.6°C 64% 13.0 mph SW20.9 kmh SW 17.0 mph27.4 kmh 30.17 in1021.7 mb 0.00 in0.0 mm 0.00 in0.0 mm 0.00 in0.0 mm
07:25 PM 52.2°F11.2°C 40.3°F4.6°C 64% 4.0 mph SW6.4 kmh SW 16.0 mph25.7 kmh 30.17 in1021.7 mb 0.00 in0.0 mm 0.00 in0.0 mm 0.00 in0.0 mm
07:30 PM 52.1°F11.2°C 40.2°F4.6°C 64% 5.0 mph SW8.0 kmh SW 14.0 mph22.5 kmh 30.17 in1021.7 mb 0.00 in0.0 mm 0.00 in0.0 mm 0.00 in0.0 mm
07:35 PM 52.1°F11.2°C 39.8°F4.3°C 63% 5.0 mph SW8.0 kmh SW 13.0 mph20.9 kmh 30.17 in1021.7 mb 0.00 in0.0 mm 0.00 in0.0 mm 0.00 in0.0 mm
07:40 PM 52.0°F11.1°C 39.7°F4.3°C 63% 10.0 mph SW16.1 kmh SW 17.0 mph27.4 kmh 30.16 in1021.3 mb 0.00 in0.0 mm 0.00 in0.0 mm 0.00 in0.0 mm
07:45 PM 52.0°F11.1°C 39.7°F4.3°C 63% 9.0 mph W14.5 kmh W 16.0 mph25.7 kmh 30.17 in1021.7 mb 0.00 in0.0 mm 0.00 in0.0 mm 0.00 in0.0 mm
07:50 PM 52.0°F11.1°C 39.7°F4.3°C 63% 9.0 mph SW14.5 kmh SW 14.0 mph22.5 kmh 30.17 in1021.7 mb 0.00 in0.0 mm 0.00 in0.0 mm 0.00 in0.0 mm
07:55 PM 52.0°F11.1°C 40.2°F4.6°C 64% 7.0 mph WNW11.3 kmh WNW 14.0 mph22.5 kmh 30.17 in1021.7 mb 0.00 in0.0 mm 0.00 in0.0 mm 0.00 in0.0 mm
08:00 PM 51.9°F11.1°C 39.7°F4.3°C 63% 7.0 mph WSW11.3 kmh WSW 15.0 mph24.1 kmh 30.17 in1021.7 mb 0.00 in0.0 mm 0.00 in0.0 mm 0.00 in0.0 mm
08:05 PM 51.9°F11.1°C 40.1°F4.5°C 64% 5.0 mph WNW8.0 kmh WNW 15.0 mph24.1 kmh 30.16 in1021.3 mb 0.00 in0.0 mm 0.00 in0.0 mm 0.00 in0.0 mm
08:10 PM 51.9°F11.1°C 40.1°F4.5°C 64% 9.0 mph WSW14.5 kmh WSW 14.0 mph22.5 kmh 30.16 in1021.3 mb 0.00 in0.0 mm 0.00 in0.0 mm 0.00 in0.0 mm
08:15 PM 51.9°F11.1°C 40.1°F4.5°C 64% 14.0 mph SW22.5 kmh SW 17.0 mph27.4 kmh 30.16 in1021.3 mb 0.00 in0.0 mm 0.00 in0.0 mm 0.00 in0.0 mm
08:20 PM 51.8°F11.0°C 40.0°F4.4°C 64% 9.0 mph SW14.5 kmh SW 19.0 mph30.6 kmh 30.17 in1021.7 mb 0.00 in0.0 mm 0.00 in0.0 mm 0.00 in0.0 mm
08:25 PM 51.8°F11.0°C 40.4°F4.7°C 65% 10.0 mph W16.1 kmh W 16.0 mph25.7 kmh 30.17 in1021.7 mb 0.00 in0.0 mm 0.00 in0.0 mm 0.00 in0.0 mm
08:30 PM 51.7°F10.9°C 40.7°F4.8°C 66% 10.0 mph WSW16.1 kmh WSW 19.0 mph30.6 kmh 30.17 in1021.7 mb 0.00 in0.0 mm 0.00 in0.0 mm 0.00 in0.0 mm
08:35 PM 51.7°F10.9°C 41.0°F5.0°C 67% 9.0 mph SW14.5 kmh SW 15.0 mph24.1 kmh 30.17 in1021.7 mb 0.00 in0.0 mm 0.00 in0.0 mm 0.00 in0.0 mm
08:40 PM 51.6°F10.9°C 41.3°F5.2°C 68% 12.0 mph WSW19.3 kmh WSW 22.0 mph35.4 kmh 30.17 in1021.7 mb 0.00 in0.0 mm 0.00 in0.0 mm 0.00 in0.0 mm
08:45 PM 51.5°F10.8°C 41.2°F5.1°C 68% 7.0 mph SW11.3 kmh SW 19.0 mph30.6 kmh 30.17 in1021.7 mb 0.00 in0.0 mm 0.00 in0.0 mm 0.00 in0.0 mm
08:50 PM 51.4°F10.8°C 41.5°F5.3°C 69% 6.0 mph WSW9.7 kmh WSW 17.0 mph27.4 kmh 30.18 in1022.0 mb 0.00 in0.0 mm 0.00 in0.0 mm 0.00 in0.0 mm
08:55 PM 51.4°F10.8°C 41.9°F5.5°C 70% 5.0 mph SSW8.0 kmh SSW 13.0 mph20.9 kmh 30.18 in1022.0 mb 0.00 in0.0 mm 0.00 in0.0 mm 0.00 in0.0 mm
09:00 PM 51.2°F10.7°C 41.7°F5.4°C 70% 3.0 mph WSW4.8 kmh WSW 11.0 mph17.7 kmh 30.18 in1022.0 mb 0.00 in0.0 mm 0.00 in0.0 mm 0.00 in0.0 mm
09:05 PM 51.2°F10.7°C 42.1°F5.6°C 71% 5.0 mph SW8.0 kmh SW 13.0 mph20.9 kmh 30.18 in1022.0 mb 0.00 in0.0 mm 0.00 in0.0 mm 0.00 in0.0 mm
09:10 PM 51.2°F10.7°C 42.1°F5.6°C 71% 13.0 mph W20.9 kmh W 19.0 mph30.6 kmh 30.18 in1022.0 mb 0.00 in0.0 mm 0.00 in0.0 mm 0.00 in0.0 mm
09:15 PM 51.3°F10.7°C 42.5°F5.8°C 72% 9.0 mph WNW14.5 kmh WNW 16.0 mph25.7 kmh 30.19 in1022.4 mb 0.00 in0.0 mm 0.00 in0.0 mm 0.00 in0.0 mm
09:20 PM 51.2°F10.7°C 42.8°F6.0°C 73% 13.0 mph SSW20.9 kmh SSW 17.0 mph27.4 kmh 30.19 in1022.4 mb 0.00 in0.0 mm 0.00 in0.0 mm 0.00 in0.0 mm
09:25 PM 51.0°F10.6°C 42.6°F5.9°C 73% 11.0 mph SW17.7 kmh SW 17.0 mph27.4 kmh 30.19 in1022.4 mb 0.00 in0.0 mm 0.00 in0.0 mm 0.00 in0.0 mm
09:30 PM 51.0°F10.6°C 43.0°F6.1°C 74% 12.0 mph SW19.3 kmh SW 17.0 mph27.4 kmh 30.19 in1022.4 mb 0.00 in0.0 mm 0.00 in0.0 mm 0.00 in0.0 mm
09:35 PM 51.0°F10.6°C 43.0°F6.1°C 74% 6.0 mph SSW9.7 kmh SSW 16.0 mph25.7 kmh 30.19 in1022.4 mb 0.00 in0.0 mm 0.00 in0.0 mm 0.00 in0.0 mm
09:40 PM 50.9°F10.5°C 42.9°F6.1°C 74% 10.0 mph W16.1 kmh W 18.0 mph29.0 kmh 30.19 in1022.4 mb 0.00 in0.0 mm 0.00 in0.0 mm 0.00 in0.0 mm
09:45 PM 50.9°F10.5°C 42.9°F6.1°C 74% 9.0 mph WSW14.5 kmh WSW 18.0 mph29.0 kmh 30.19 in1022.4 mb 0.00 in0.0 mm 0.00 in0.0 mm 0.00 in0.0 mm
09:50 PM 50.8°F10.4°C 43.1°F6.2°C 75% 6.0 mph SW9.7 kmh SW 12.0 mph19.3 kmh 30.19 in1022.4 mb 0.00 in0.0 mm 0.00 in0.0 mm 0.00 in0.0 mm
09:55 PM 50.8°F10.4°C 43.1°F6.2°C 75% 7.0 mph WSW11.3 kmh WSW 16.0 mph25.7 kmh 30.19 in1022.4 mb 0.00 in0.0 mm 0.00 in0.0 mm 0.00 in0.0 mm
10:00 PM 50.7°F10.4°C 43.4°F6.3°C 76% 12.0 mph SW19.3 kmh SW 16.0 mph25.7 kmh 30.19 in1022.4 mb 0.00 in0.0 mm 0.00 in0.0 mm 0.00 in0.0 mm
10:05 PM 50.8°F10.4°C 43.1°F6.2°C 75% 11.0 mph SW17.7 kmh SW 15.0 mph24.1 kmh 30.18 in1022.0 mb 0.00 in0.0 mm 0.00 in0.0 mm 0.00 in0.0 mm
10:10 PM 50.7°F10.4°C 43.4°F6.3°C 76% 6.0 mph SW9.7 kmh SW 13.0 mph20.9 kmh 30.18 in1022.0 mb 0.00 in0.0 mm 0.00 in0.0 mm 0.00 in0.0 mm
10:15 PM 50.7°F10.4°C 43.4°F6.3°C 76% 7.0 mph W11.3 kmh W 17.0 mph27.4 kmh 30.18 in1022.0 mb 0.00 in0.0 mm 0.00 in0.0 mm 0.00 in0.0 mm
10:20 PM 50.8°F10.4°C 43.5°F6.4°C 76% 9.0 mph SW14.5 kmh SW 20.0 mph32.2 kmh 30.18 in1022.0 mb 0.00 in0.0 mm 0.00 in0.0 mm 0.00 in0.0 mm
10:25 PM 50.8°F10.4°C 43.5°F6.4°C 76% 10.0 mph SW16.1 kmh SW 19.0 mph30.6 kmh 30.18 in1022.0 mb 0.00 in0.0 mm 0.00 in0.0 mm 0.00 in0.0 mm
10:30 PM 50.8°F10.4°C 43.5°F6.4°C 76% 11.0 mph WSW17.7 kmh WSW 20.0 mph32.2 kmh 30.18 in1022.0 mb 0.00 in0.0 mm 0.00 in0.0 mm 0.00 in0.0 mm
10:35 PM 50.9°F10.5°C 43.6°F6.4°C 76% 10.0 mph SW16.1 kmh SW 17.0 mph27.4 kmh 30.18 in1022.0 mb 0.00 in0.0 mm 0.00 in0.0 mm 0.00 in0.0 mm
10:40 PM 50.9°F10.5°C 43.6°F6.4°C 76% 14.0 mph W22.5 kmh W 18.0 mph29.0 kmh 30.18 in1022.0 mb 0.00 in0.0 mm 0.00 in0.0 mm 0.00 in0.0 mm
10:45 PM 51.0°F10.6°C 43.7°F6.5°C 76% 11.0 mph WSW17.7 kmh WSW 22.0 mph35.4 kmh 30.18 in1022.0 mb 0.00 in0.0 mm 0.00 in0.0 mm 0.00 in0.0 mm
10:50 PM 51.0°F10.6°C 43.7°F6.5°C 76% 12.0 mph WSW19.3 kmh WSW 21.0 mph33.8 kmh 30.18 in1022.0 mb 0.00 in0.0 mm 0.00 in0.0 mm 0.00 in0.0 mm
10:55 PM 51.0°F10.6°C 43.7°F6.5°C 76% 13.0 mph W20.9 kmh W 20.0 mph32.2 kmh 30.17 in1021.7 mb 0.00 in0.0 mm 0.00 in0.0 mm 0.00 in0.0 mm
11:00 PM 51.0°F10.6°C 43.7°F6.5°C 76% 15.0 mph WSW24.1 kmh WSW 24.0 mph38.6 kmh 30.17 in1021.7 mb 0.00 in0.0 mm 0.00 in0.0 mm 0.00 in0.0 mm
11:05 PM 51.0°F10.6°C 44.0°F6.7°C 77% 14.0 mph WSW22.5 kmh WSW 20.0 mph32.2 kmh 30.18 in1022.0 mb 0.00 in0.0 mm 0.00 in0.0 mm 0.00 in0.0 mm
11:10 PM 50.9°F10.5°C 43.9°F6.6°C 77% 13.0 mph WSW20.9 kmh WSW 20.0 mph32.2 kmh 30.18 in1022.0 mb 0.00 in0.0 mm 0.00 in0.0 mm 0.00 in0.0 mm
11:15 PM 50.9°F10.5°C 44.2°F6.8°C 78% 14.0 mph W22.5 kmh W 21.0 mph33.8 kmh 30.18 in1022.0 mb 0.00 in0.0 mm 0.00 in0.0 mm 0.00 in0.0 mm
11:20 PM 50.8°F10.4°C 44.1°F6.7°C 78% 13.0 mph WSW20.9 kmh WSW 29.0 mph46.7 kmh 30.18 in1022.0 mb 0.00 in0.0 mm 0.00 in0.0 mm 0.00 in0.0 mm
11:25 PM 50.7°F10.4°C 44.0°F6.7°C 78% 6.0 mph W9.7 kmh W 21.0 mph33.8 kmh 30.17 in1021.7 mb 0.00 in0.0 mm 0.00 in0.0 mm 0.00 in0.0 mm
11:30 PM 50.6°F10.3°C 44.3°F6.8°C 79% 10.0 mph SW16.1 kmh SW 20.0 mph32.2 kmh 30.17 in1021.7 mb 0.00 in0.0 mm 0.00 in0.0 mm 0.00 in0.0 mm
11:35 PM 50.6°F10.3°C 44.3°F6.8°C 79% 10.0 mph WSW16.1 kmh WSW 17.0 mph27.4 kmh 30.17 in1021.7 mb 0.00 in0.0 mm 0.00 in0.0 mm 0.00 in0.0 mm
11:40 PM 50.5°F10.3°C 44.2°F6.8°C 79% 13.0 mph WSW20.9 kmh WSW 18.0 mph29.0 kmh 30.17 in1021.7 mb 0.00 in0.0 mm 0.00 in0.0 mm 0.00 in0.0 mm
11:45 PM 50.5°F10.3°C 44.2°F6.8°C 79% 10.0 mph WSW16.1 kmh WSW 19.0 mph30.6 kmh 30.17 in1021.7 mb 0.00 in0.0 mm 0.00 in0.0 mm 0.00 in0.0 mm
11:50 PM 50.4°F10.2°C 44.1°F6.7°C 79% 9.0 mph WSW14.5 kmh WSW 17.0 mph27.4 kmh 30.18 in1022.0 mb 0.00 in0.0 mm 0.00 in0.0 mm 0.00 in0.0 mm
11:55 PM 50.4°F10.2°C 44.1°F6.7°C 79% 10.0 mph WSW16.1 kmh WSW 16.0 mph25.7 kmh 30.17 in1021.7 mb 0.00 in0.0 mm 0.00 in0.0 mm 0.00 in0.0 mm